Time;durP1;ratioP1;P1;durP2;ratioP2;P2;SDS_P1;SDS_P2;PMS_P1;PMS_P2;Temp;Humidity;BMP_temperature;BMP_pressure;BME280_temperature;BME280_humidity;BME280_pressure;Samples;Min_cycle;Max_cycle;Signal;HPM_P1;HPM_P2
2022/07/12 00:01:47;;;;;;;2.93;1.80;;;;;;;17.10;93.91;100989.03;4974420;28;20462;-52
2022/07/12 00:04:13;;;;;;;1.67;1.57;;;;;;;16.79;95.65;100984.13;4965707;28;20450;-52
2022/07/12 00:06:40;;;;;;;1.03;0.93;;;;;;;17.03;94.74;100982.22;4976342;28;20454;-51
2022/07/12 00:09:06;;;;;;;1.73;1.63;;;;;;;16.88;94.82;100981.06;4976096;28;20478;-52
2022/07/12 00:11:35;;;;;;;7.93;2.00;;;;;;;16.84;95.46;100979.44;4959535;28;20459;-52
2022/07/12 00:14:02;;;;;;;2.13;2.03;;;;;;;16.82;94.98;100992.06;4976295;28;20454;-52
2022/07/12 00:16:29;;;;;;;2.33;2.10;;;;;;;16.72;95.85;100979.97;4975668;28;20975;-52
2022/07/12 00:18:55;;;;;;;4.20;2.13;;;;;;;16.78;95.16;100985.97;4976074;28;20474;-52
2022/07/12 00:21:22;;;;;;;2.13;1.70;;;;;;;16.71;94.90;100986.28;4975951;28;20457;-52
2022/07/12 00:23:48;;;;;;;1.90;1.80;;;;;;;16.63;95.46;100983.91;4976058;28;20830;-52
2022/07/12 00:26:14;;;;;;;1.43;1.33;;;;;;;16.53;96.29;100978.03;4975784;28;20457;-51
2022/07/12 00:28:41;;;;;;;1.67;1.57;;;;;;;16.47;96.39;100985.47;4975858;28;20470;-51
2022/07/12 00:31:08;;;;;;;2.43;2.30;;;;;;;16.46;96.53;100978.38;4975767;28;20454;-51
2022/07/12 00:33:35;;;;;;;3.20;1.97;;;;;;;16.44;95.86;100980.22;4974372;28;20537;-50
2022/07/12 00:36:02;;;;;;;1.30;1.20;;;;;;;16.42;95.56;100976.72;4975531;28;20462;-52
2022/07/12 00:38:28;;;;;;;2.00;1.90;;;;;;;16.33;96.17;100988.75;4975557;28;20515;-52
2022/07/12 00:40:55;;;;;;;2.23;2.10;;;;;;;16.46;96.01;100981.06;4972303;28;20551;-52
2022/07/12 00:43:22;;;;;;;1.80;1.70;;;;;;;16.35;95.93;100978.81;4966221;28;20892;-52
2022/07/12 00:45:49;;;;;;;2.10;1.87;;;;;;;16.27;96.84;100984.47;4975407;28;20533;-51
2022/07/12 00:48:18;;;;;;;1.43;1.33;;;;;;;16.00;97.31;100973.06;4975570;28;20480;-52
2022/07/12 00:50:45;;;;;;;1.40;1.30;;;;;;;15.83;98.30;100970.19;4975262;28;20455;-52
2022/07/12 00:53:13;;;;;;;1.70;1.40;;;;;;;16.00;97.71;100965.00;4975733;28;20454;-52
2022/07/12 00:55:39;;;;;;;11.00;1.47;;;;;;;15.88;97.85;100962.81;4983398;28;20451;-52
2022/07/12 00:58:06;;;;;;;1.90;1.80;;;;;;;15.90;97.93;100962.78;4965945;28;20505;-52
2022/07/12 01:00:32;;;;;;;1.80;1.70;;;;;;;15.74;97.90;100962.47;4975155;28;20456;-51
2022/07/12 01:03:01;;;;;;;2.03;1.93;;;;;;;15.84;97.91;100966.56;4964107;28;20463;-52
2022/07/12 01:05:28;;;;;;;3.63;1.60;;;;;;;15.60;98.32;100964.81;4973887;28;20541;-51
2022/07/12 01:07:55;;;;;;;1.70;1.60;;;;;;;15.57;98.34;100959.56;4975126;28;20477;-52
2022/07/12 01:10:22;;;;;;;3.70;2.50;;;;;;;15.52;98.09;100958.88;4968938;28;20455;-51
2022/07/12 01:12:49;;;;;;;2.27;1.47;;;;;;;15.53;97.80;100961.50;4968216;28;20482;-52
2022/07/12 01:15:20;;;;;;;1.37;1.27;;;;;;;15.53;97.48;100956.13;4975033;28;20454;-51
2022/07/12 01:17:47;;;;;;;7.90;1.87;;;;;;;15.50;97.36;100952.69;4974633;28;20526;-52
2022/07/12 01:20:19;;;;;;;2.70;1.57;;;;;;;15.46;97.90;100959.09;4975171;28;20453;-50
2022/07/12 01:22:54;;;;;;;2.27;2.17;;;;;;;15.42;98.46;100958.34;4974886;28;20461;-52
2022/07/12 01:25:22;;;;;;;1.53;1.43;;;;;;;15.33;98.11;100951.50;4974817;28;20450;-51
2022/07/12 01:27:48;;;;;;;1.87;1.67;;;;;;;15.07;99.44;100954.28;4974925;28;20475;-52
2022/07/12 01:30:15;;;;;;;1.57;1.47;;;;;;;15.28;99.44;100953.50;4975030;28;20466;-51
2022/07/12 01:32:42;;;;;;;1.57;1.43;;;;;;;15.28;99.04;100956.19;4974841;28;20450;-52
2022/07/12 01:35:09;;;;;;;4.30;2.10;;;;;;;15.01;99.62;100963.41;4974513;28;20484;-50
2022/07/12 01:37:45;;;;;;;1.90;1.80;;;;;;;15.05;100.00;100970.41;4974522;28;20943;-50
2022/07/12 01:40:14;;;;;;;3.70;1.23;;;;;;;14.90;100.00;100959.38;4974606;28;20452;-51
2022/07/12 01:42:43;;;;;;;1.23;1.13;;;;;;;15.16;100.00;100961.09;4961165;28;20963;-51
2022/07/12 01:45:11;;;;;;;1.57;1.30;;;;;;;15.16;100.00;100959.31;4974122;28;20825;-52
2022/07/12 01:47:38;;;;;;;1.37;1.27;;;;;;;15.20;98.83;100971.66;4974632;28;21003;-51
2022/07/12 01:50:09;;;;;;;2.83;1.47;;;;;;;15.10;99.39;100967.56;4974923;28;20458;-51
2022/07/12 01:52:38;;;;;;;4.97;1.03;;;;;;;15.05;100.00;100977.56;4968093;28;20452;-51
2022/07/12 01:55:05;;;;;;;0.83;0.83;;;;;;;14.91;100.00;100978.06;4967799;28;20454;-51
2022/07/12 01:57:32;;;;;;;0.97;0.83;;;;;;;15.03;100.00;100974.94;4961426;28;20494;-52
2022/07/12 02:00:02;;;;;;;2.07;1.97;;;;;;;14.95;100.00;100974.38;4974427;28;20460;-51
2022/07/12 02:02:30;;;;;;;1.80;1.70;;;;;;;15.01;100.00;100976.81;4966932;28;20470;-52
2022/07/12 02:04:59;;;;;;;1.00;0.90;;;;;;;14.98;100.00;100968.88;4969009;28;20473;-52
2022/07/12 02:07:26;;;;;;;1.57;1.40;;;;;;;15.04;100.00;100971.34;4973941;28;20864;-52
2022/07/12 02:09:53;;;;;;;1.57;1.47;;;;;;;14.94;100.00;100975.28;4972220;28;20971;-52
2022/07/12 02:12:19;;;;;;;2.10;1.90;;;;;;;14.84;100.00;100968.50;4962811;28;20461;-52
2022/07/12 02:14:46;;;;;;;6.47;2.10;;;;;;;14.84;100.00;100967.63;4973856;28;20513;-51
2022/07/12 02:17:13;;;;;;;2.40;2.20;;;;;;;14.75;100.00;100968.81;4973782;28;20479;-52
2022/07/12 02:19:39;;;;;;;2.60;2.40;;;;;;;14.84;100.00;100973.00;4973827;28;20450;-51
2022/07/12 02:22:06;;;;;;;1.60;1.50;;;;;;;14.63;100.00;100963.88;4973860;28;20450;-51
2022/07/12 02:24:32;;;;;;;1.90;1.73;;;;;;;14.46;100.00;100976.03;4973338;28;20891;-50
2022/07/12 02:26:58;;;;;;;1.60;1.50;;;;;;;14.23;100.00;100976.75;4973612;28;20956;-52
2022/07/12 02:29:25;;;;;;;3.07;1.73;;;;;;;14.41;100.00;100983.31;4973471;28;20446;-52
2022/07/12 02:31:52;;;;;;;2.77;1.83;;;;;;;14.58;100.00;100976.56;4973811;28;20477;-51
2022/07/12 02:34:18;;;;;;;2.50;1.83;;;;;;;14.62;100.00;100979.06;4973738;28;20450;-51
2022/07/12 02:36:44;;;;;;;3.77;2.70;;;;;;;14.80;100.00;100978.47;4973307;28;20466;-52
2022/07/12 02:39:11;;;;;;;2.17;1.73;;;;;;;14.86;100.00;100980.03;4973499;28;20502;-51
2022/07/12 02:41:37;;;;;;;5.53;2.57;;;;;;;14.82;100.00;100978.41;4964451;28;20476;-51
2022/07/12 02:44:04;;;;;;;7.50;1.20;;;;;;;14.59;100.00;100978.31;4970011;28;20501;-51
2022/07/12 02:46:31;;;;;;;3.17;0.97;;;;;;;14.68;100.00;100978.00;4973696;28;20454;-52
2022/07/12 02:48:58;;;;;;;2.13;1.93;;;;;;;14.58;100.00;100984.59;4974028;28;20549;-52
2022/07/12 02:51:24;;;;;;;2.40;2.20;;;;;;;14.54;100.00;100977.59;4973484;28;20458;-53
2022/07/12 02:53:51;;;;;;;2.13;2.03;;;;;;;14.23;100.00;100992.81;4976684;28;20818;-51
2022/07/12 02:56:17;;;;;;;0.90;0.77;;;;;;;14.32;100.00;100993.44;4972621;28;20469;-53
2022/07/12 02:58:44;;;;;;;1.43;1.07;;;;;;;14.25;100.00;100998.09;4970049;28;20505;-52
2022/07/12 03:01:11;;;;;;;4.80;2.30;;;;;;;14.21;100.00;100999.13;4973443;28;20458;-52
2022/07/12 03:03:37;;;;;;;1.93;1.83;;;;;;;14.07;100.00;100998.69;4960172;28;20458;-52
2022/07/12 03:06:04;;;;;;;1.97;1.87;;;;;;;14.11;100.00;100990.53;4973316;28;20450;-52
2022/07/12 03:08:31;;;;;;;2.67;1.33;;;;;;;14.18;100.00;100993.88;4973041;28;20473;-52
2022/07/12 03:10:58;;;;;;;0.80;0.80;;;;;;;14.02;100.00;100993.50;4963228;28;20486;-52
2022/07/12 03:13:25;;;;;;;1.87;1.77;;;;;;;13.89;100.00;100998.34;4970614;28;20458;-51
2022/07/12 03:15:51;;;;;;;5.60;3.20;;;;;;;13.93;100.00;100993.78;4972903;28;20948;-52
2022/07/12 03:18:18;;;;;;;2.50;2.30;;;;;;;13.90;100.00;100992.09;4973047;28;20517;-51
2022/07/12 03:20:44;;;;;;;1.60;1.50;;;;;;;13.85;100.00;100995.84;4973205;28;20469;-52
2022/07/12 03:23:11;;;;;;;2.87;1.73;;;;;;;13.82;100.00;101006.59;4973071;28;20450;-52
2022/07/12 03:25:37;;;;;;;2.03;1.67;;;;;;;13.91;100.00;101006.31;4972923;28;20461;-53
2022/07/12 03:28:04;;;;;;;1.80;1.70;;;;;;;13.58;100.00;101006.44;4972643;28;20471;-52
2022/07/12 03:30:30;;;;;;;1.43;1.33;;;;;;;13.66;100.00;101008.84;4973031;28;20953;-52
2022/07/12 03:32:57;;;;;;;2.13;1.97;;;;;;;13.91;100.00;101007.19;4973091;28;20461;-52
2022/07/12 03:35:24;;;;;;;3.23;2.60;;;;;;;13.86;100.00;101011.81;4972780;28;20476;-52
2022/07/12 03:37:52;;;;;;;3.80;1.23;;;;;;;13.93;100.00;101005.34;4972669;28;20505;-52
2022/07/12 03:40:19;;;;;;;1.63;1.53;;;;;;;14.00;100.00;101013.19;4972735;28;20450;-51
2022/07/12 03:42:46;;;;;;;2.73;2.53;;;;;;;13.86;100.00;101014.50;4959916;28;20914;-52
2022/07/12 03:45:14;;;;;;;2.00;1.90;;;;;;;13.83;100.00;101016.34;4972919;28;20486;-52
2022/07/12 03:47:41;;;;;;;4.27;1.50;;;;;;;13.90;100.00;101017.94;4973045;28;20489;-52
2022/07/12 03:50:11;;;;;;;1.50;1.23;;;;;;;13.66;100.00;101016.88;4972833;28;20450;-51
2022/07/12 03:52:39;;;;;;;3.20;2.70;;;;;;;13.68;100.00;101012.34;4973081;28;20454;-52
2022/07/12 03:55:06;;;;;;;2.90;2.70;;;;;;;13.67;100.00;101012.41;4985853;28;20446;-54
2022/07/12 03:57:33;;;;;;;3.73;2.43;;;;;;;13.66;100.00;101011.53;4960261;28;20480;-52
2022/07/12 03:59:59;;;;;;;1.77;1.63;;;;;;;13.74;100.00;101016.66;4972781;28;20798;-52
2022/07/12 04:02:25;;;;;;;1.43;1.33;;;;;;;13.78;100.00;101011.16;4966994;28;20455;-52
2022/07/12 04:04:52;;;;;;;2.03;1.77;;;;;;;13.70;100.00;101012.31;4967575;28;20834;-50
2022/07/12 04:07:19;;;;;;;3.80;3.50;;;;;;;13.67;100.00;101009.72;4973910;28;20470;-51
2022/07/12 04:09:45;;;;;;;2.03;1.83;;;;;;;13.55;100.00;101017.19;4975843;28;20454;-51
2022/07/12 04:12:12;;;;;;;3.13;2.57;;;;;;;13.66;100.00;101005.31;4964022;28;20457;-51
2022/07/12 04:14:38;;;;;;;3.10;2.60;;;;;;;13.67;100.00;101012.41;4975961;28;20818;-50
2022/07/12 04:17:05;;;;;;;1.77;1.57;;;;;;;13.59;100.00;101012.66;4975904;28;20836;-52
2022/07/12 04:19:32;;;;;;;2.80;2.63;;;;;;;13.47;100.00;101004.97;4976047;28;20489;-51
2022/07/12 04:21:59;;;;;;;4.13;3.77;;;;;;;13.76;100.00;101009.47;4976140;28;20534;-52
2022/07/12 04:24:26;;;;;;;3.80;2.90;;;;;;;13.86;100.00;101011.81;4975859;28;20935;-51
2022/07/12 04:26:52;;;;;;;1.60;1.47;;;;;;;14.07;100.00;101006.72;4975711;28;20481;-51
2022/07/12 04:29:19;;;;;;;2.27;2.17;;;;;;;14.21;100.00;101004.47;4975754;28;20944;-51
2022/07/12 04:31:46;;;;;;;2.33;2.23;;;;;;;14.26;100.00;101007.03;4976123;28;20529;-51
2022/07/12 04:34:16;;;;;;;3.17;2.97;;;;;;;14.34;100.00;101004.97;4976077;28;20454;-52
2022/07/12 04:36:47;;;;;;;20.30;4.80;;;;;;;14.59;100.00;101005.94;4975513;28;20474;-52
2022/07/12 04:39:13;;;;;;;2.97;2.77;;;;;;;15.24;100.00;101009.94;4975261;28;21011;-52
2022/07/12 04:41:40;;;;;;;2.40;2.30;;;;;;;16.01;97.45;101000.75;4966992;28;20832;-52
2022/07/12 04:44:07;;;;;;;3.47;2.93;;;;;;;16.65;94.33;101006.19;4972022;28;20467;-52
2022/07/12 04:46:34;;;;;;;4.10;3.83;;;;;;;17.51;91.81;101002.44;4975815;28;20455;-52
2022/07/12 04:49:00;;;;;;;8.67;3.00;;;;;;;18.16;89.11;101003.88;4975272;28;20549;-52
2022/07/12 04:51:27;;;;;;;3.90;3.30;;;;;;;18.66;87.03;101003.22;4975368;28;20501;-52
2022/07/12 04:53:54;;;;;;;4.20;3.90;;;;;;;19.01;85.84;101009.47;4979282;28;20448;-51
2022/07/12 04:56:21;;;;;;;4.33;3.83;;;;;;;19.42;84.67;101012.69;4974551;28;20451;-52
2022/07/12 04:58:48;;;;;;;7.17;2.63;;;;;;;19.79;83.50;101011.59;4972629;28;20526;-51
2022/07/12 05:01:16;;;;;;;4.83;4.37;;;;;;;19.94;83.51;101020.66;4975231;28;21018;-52
2022/07/12 05:03:43;;;;;;;9.43;4.07;;;;;;;20.16;82.82;101029.31;4962563;28;20451;-53
2022/07/12 05:06:09;;;;;;;5.63;3.70;;;;;;;20.50;80.75;101036.38;4975310;28;20461;-53
2022/07/12 05:08:35;;;;;;;5.33;4.33;;;;;;;20.92;79.32;101040.22;4975209;28;20538;-51
2022/07/12 05:11:02;;;;;;;8.40;4.00;;;;;;;20.42;81.58;101044.03;4964254;28;20455;-53
2022/07/12 05:13:30;;;;;;;5.03;4.53;;;;;;;20.59;81.78;101043.97;4973645;28;20896;-52
2022/07/12 05:15:56;;;;;;;7.07;4.40;;;;;;;20.41;82.15;101040.47;4975378;28;20465;-53
2022/07/12 05:18:23;;;;;;;4.67;4.37;;;;;;;20.88;80.57;101044.94;4973943;28;20490;-52
2022/07/12 05:20:49;;;;;;;4.67;4.37;;;;;;;20.87;80.61;101045.91;4974886;28;20480;-53
2022/07/12 05:23:18;;;;;;;8.73;6.27;;;;;;;21.48;78.36;101058.44;4975059;28;20465;-53
2022/07/12 05:25:45;;;;;;;4.77;4.27;;;;;;;21.76;75.40;101060.31;4974764;28;20497;-53
2022/07/12 05:28:14;;;;;;;4.80;4.40;;;;;;;21.75;76.36;101071.22;4974743;28;20462;-53
2022/07/12 05:30:40;;;;;;;7.10;4.93;;;;;;;21.46;77.13;101060.38;4974892;28;20454;-52
2022/07/12 05:33:07;;;;;;;4.50;4.20;;;;;;;21.37;77.27;101074.47;4974983;28;20450;-52
2022/07/12 05:35:33;;;;;;;4.20;3.90;;;;;;;22.14;75.34;101067.88;4974677;28;20458;-53
2022/07/12 05:38:01;;;;;;;4.80;4.40;;;;;;;21.57;76.21;101073.25;4974444;28;20858;-53
2022/07/12 05:40:27;;;;;;;4.57;4.17;;;;;;;21.99;75.97;101072.41;4974350;28;20545;-52
2022/07/12 05:42:54;;;;;;;5.37;4.90;;;;;;;21.71;76.55;101075.97;4962498;28;20549;-53
2022/07/12 05:45:22;;;;;;;6.70;4.50;;;;;;;21.72;76.44;101063.31;4974310;28;20944;-53
2022/07/12 05:47:49;;;;;;;4.37;4.00;;;;;;;21.70;76.49;101066.13;4974602;28;20481;-53
2022/07/12 05:50:15;;;;;;;6.90;4.20;;;;;;;21.64;76.83;101077.31;4974492;28;20446;-53
2022/07/12 05:55:26;;;;;;;3.90;3.60;;;;;;;21.85;75.47;101077.81;4984212;28;20524;-53
2022/07/12 05:57:53;;;;;;;4.20;4.00;;;;;;;21.80;75.84;101079.97;4964673;28;20497;-52
2022/07/12 06:00:19;;;;;;;7.63;5.10;;;;;;;22.02;75.50;101080.31;4974227;28;20490;-53
2022/07/12 06:02:46;;;;;;;3.40;3.20;;;;;;;21.65;76.94;101081.75;4963949;28;20469;-52
2022/07/12 06:05:12;;;;;;;5.53;5.17;;;;;;;21.98;76.43;101083.31;4971217;28;20457;-52
2022/07/12 06:07:39;;;;;;;5.10;4.53;;;;;;;21.53;77.72;101086.13;4974376;28;20471;-52
2022/07/12 06:10:06;;;;;;;15.83;3.50;;;;;;;22.35;75.58;101095.44;4970906;28;20451;-53
2022/07/12 06:12:32;;;;;;;3.53;3.33;;;;;;;22.80;74.14;101094.25;4964422;28;20464;-52
2022/07/12 06:14:58;;;;;;;6.70;4.23;;;;;;;22.34;75.98;101094.56;4974008;28;20455;-52
2022/07/12 06:17:25;;;;;;;7.50;4.10;;;;;;;22.52;75.32;101102.47;4973989;28;20470;-53
2022/07/12 06:19:52;;;;;;;4.37;3.97;;;;;;;22.74;74.58;101110.91;4975182;28;20490;-53
2022/07/12 06:22:19;;;;;;;6.80;4.63;;;;;;;22.56;74.40;101102.16;4974324;28;20476;-53
2022/07/12 06:24:45;;;;;;;4.43;4.13;;;;;;;22.89;73.83;101109.94;4974005;28;20464;-52
2022/07/12 06:27:11;;;;;;;5.70;4.60;;;;;;;22.86;74.74;101106.53;4973684;28;20533;-53
2022/07/12 06:29:38;;;;;;;4.33;3.50;;;;;;;23.01;74.04;101113.63;4974092;28;20455;-53
2022/07/12 06:32:05;;;;;;;5.03;4.63;;;;;;;23.39;72.59;101113.75;4973837;28;20838;-53
2022/07/12 06:34:31;;;;;;;3.67;3.40;;;;;;;22.95;73.77;101112.22;4973772;28;20458;-52
2022/07/12 06:36:58;;;;;;;5.27;4.90;;;;;;;23.44;72.57;101118.88;4973830;28;20968;-51
2022/07/12 06:39:24;;;;;;;3.40;3.20;;;;;;;23.21;73.25;101115.03;4973857;28;20490;-52
2022/07/12 06:41:52;;;;;;;8.07;4.27;;;;;;;23.42;72.71;101112.66;4963310;28;20486;-53
2022/07/12 06:44:18;;;;;;;4.40;4.07;;;;;;;23.55;72.52;101118.97;4971712;28;20936;-52
2022/07/12 06:46:45;;;;;;;4.80;4.50;;;;;;;23.98;71.17;101110.56;4973455;28;20490;-53
2022/07/12 06:49:15;;;;;;;8.27;3.63;;;;;;;23.11;73.88;101113.91;4973475;28;20463;-53
2022/07/12 06:51:41;;;;;;;5.33;4.33;;;;;;;23.70;71.55;101112.50;4973286;28;20537;-53
2022/07/12 06:54:07;;;;;;;4.67;4.27;;;;;;;23.80;71.43;101107.31;4978666;28;20939;-52
2022/07/12 06:56:34;;;;;;;3.70;3.40;;;;;;;23.62;71.19;101106.78;4968975;28;20455;-53
2022/07/12 06:59:00;;;;;;;4.27;3.90;;;;;;;23.61;72.80;101097.75;4972070;28;20498;-53
2022/07/12 07:01:27;;;;;;;3.27;3.07;;;;;;;23.61;72.02;101105.91;4973157;28;20986;-53
2022/07/12 07:03:53;;;;;;;5.13;3.50;;;;;;;23.81;71.42;101103.63;4960821;28;20454;-52
2022/07/12 07:06:20;;;;;;;2.93;2.73;;;;;;;24.01;71.87;101104.94;4973313;28;20466;-52
2022/07/12 07:08:46;;;;;;;4.83;3.90;;;;;;;24.21;71.54;101096.19;4973163;28;20553;-52
2022/07/12 07:11:13;;;;;;;4.40;3.50;;;;;;;24.18;71.67;101096.44;4961146;28;20426;-52
2022/07/12 07:13:39;;;;;;;2.93;2.73;;;;;;;24.31;70.26;101102.75;4972586;28;20461;-52
2022/07/12 07:16:13;;;;;;;3.00;2.80;;;;;;;24.36;70.84;101092.38;4973328;28;21264;-53
2022/07/12 07:18:40;;;;;;;2.40;2.20;;;;;;;24.39;70.52;101097.59;4972806;28;21010;-52
2022/07/12 07:21:07;;;;;;;3.50;2.10;;;;;;;24.73;69.86;101093.25;4973195;28;20482;-52
2022/07/12 07:23:33;;;;;;;3.50;3.30;;;;;;;24.79;68.18;101095.50;4973123;28;20754;-53
2022/07/12 07:25:59;;;;;;;2.57;2.47;;;;;;;25.16;68.02;101095.47;4972768;28;20917;-52
2022/07/12 07:28:26;;;;;;;2.40;2.20;;;;;;;25.04;67.49;101101.84;4973105;28;20486;-53
2022/07/12 07:31:12;;;;;;;1.43;1.33;;;;;;;24.75;68.03;101102.16;4973326;28;20451;-53
2022/07/12 07:33:39;;;;;;;1.30;1.20;;;;;;;24.40;69.27;101103.94;4973120;28;20465;-52
2022/07/12 07:36:05;;;;;;;1.50;1.40;;;;;;;24.85;68.42;101106.94;4972992;28;20848;-53
2022/07/12 07:38:32;;;;;;;1.40;1.30;;;;;;;25.06;67.50;101110.75;4972929;28;20466;-51
2022/07/12 07:40:58;;;;;;;1.70;1.60;;;;;;;25.27;66.69;101111.84;4969032;28;20905;-53
2022/07/12 07:43:24;;;;;;;1.87;1.77;;;;;;;25.72;65.33;101109.28;4967270;28;20464;-54
2022/07/12 07:45:52;;;;;;;1.80;1.70;;;;;;;25.58;66.10;101107.59;4977082;28;20512;-53
2022/07/12 07:48:18;;;;;;;1.63;1.53;;;;;;;25.64;65.14;101114.44;4976510;28;20480;-53
2022/07/12 07:50:50;;;;;;;1.50;1.40;;;;;;;24.69;67.40;101101.78;4976882;28;20473;-52
2022/07/12 07:53:17;;;;;;;1.90;1.80;;;;;;;25.17;66.95;101104.50;4976929;28;20524;-53
2022/07/12 07:55:43;;;;;;;2.33;1.40;;;;;;;25.56;66.94;101104.13;4970777;28;20979;-51
2022/07/12 07:58:10;;;;;;;1.40;1.00;;;;;;;25.63;65.17;101109.97;4969173;28;20565;-52
2022/07/12 08:00:36;;;;;;;1.37;1.23;;;;;;;25.64;64.58;101101.69;4976214;28;20587;-51
2022/07/12 08:03:03;;;;;;;1.20;0.90;;;;;;;25.27;64.66;101106.41;4964579;28;20463;-52
2022/07/12 08:05:29;;;;;;;2.60;1.13;;;;;;;25.18;65.51;101103.50;4975646;28;20533;-53
2022/07/12 08:07:56;;;;;;;0.70;0.60;;;;;;;25.08;60.06;101096.06;4976206;28;20445;-54
2022/07/12 08:10:25;;;;;;;0.60;0.60;;;;;;;24.81;59.06;101095.41;4970303;28;20945;-51
2022/07/12 08:12:51;;;;;;;1.33;0.73;;;;;;;24.42;63.17;101096.53;4969552;28;20805;-52
2022/07/12 08:15:18;;;;;;;0.80;0.80;;;;;;;24.16;64.27;101098.38;4969405;28;20833;-51
2022/07/12 08:17:44;;;;;;;13.53;1.20;;;;;;;24.35;64.00;101098.81;4969705;28;20481;-50
2022/07/12 08:20:19;;;;;;;1.10;0.90;;;;;;;24.79;62.56;101091.91;4975827;28;20556;-51
2022/07/12 08:23:06;;;;;;;0.70;0.63;;;;;;;24.71;63.75;101083.47;4976243;28;20457;-51
2022/07/12 08:25:32;;;;;;;1.13;0.97;;;;;;;24.77;62.63;101100.19;4975742;28;20948;-53
2022/07/12 08:27:59;;;;;;;0.90;0.80;;;;;;;24.46;64.94;101095.31;4975396;28;20477;-53
2022/07/12 08:30:26;;;;;;;0.70;0.50;;;;;;;24.95;62.49;101089.81;4976111;28;20425;-52
2022/07/12 08:32:52;;;;;;;0.60;0.50;;;;;;;25.80;59.79;101092.34;4975904;28;20450;-53
2022/07/12 08:35:19;;;;;;;0.90;0.80;;;;;;;25.49;60.74;101091.97;4975979;28;20435;-53
2022/07/12 08:37:45;;;;;;;0.60;0.50;;;;;;;25.59;60.81;101098.44;4975829;28;20481;-52
2022/07/12 08:40:12;;;;;;;1.03;0.90;;;;;;;25.05;60.80;101103.59;4975757;28;20460;-53
2022/07/12 08:42:42;;;;;;;5.73;1.00;;;;;;;25.68;60.09;101096.88;4962910;28;20450;-53
2022/07/12 08:45:09;;;;;;;0.70;0.57;;;;;;;25.73;59.84;101100.13;4975819;28;20488;-53
2022/07/12 08:47:37;;;;;;;0.77;0.60;;;;;;;25.48;59.90;101103.84;4975418;28;21006;-52
2022/07/12 08:50:19;;;;;;;0.80;0.60;;;;;;;25.88;59.16;101107.06;4976231;28;20453;-49
2022/07/12 08:52:50;;;;;;;0.60;0.50;;;;;;;26.60;57.68;101100.41;4975253;28;20448;-49
2022/07/12 08:55:28;;;;;;;0.57;0.47;;;;;;;25.80;57.29;101112.28;4973016;28;20468;-49
2022/07/12 08:57:59;;;;;;;0.70;0.60;;;;;;;25.92;57.41;101111.31;4966227;28;20976;-48
2022/07/12 09:00:28;;;;;;;0.60;0.50;;;;;;;25.49;58.71;101099.28;4975662;28;20474;-49
2022/07/12 09:03:03;;;;;;;3.50;0.73;;;;;;;25.65;58.04;101099.84;4964258;28;20884;-49
2022/07/12 09:05:31;;;;;;;0.67;0.50;;;;;;;26.58;57.34;101086.88;4974417;28;20431;-49
2022/07/12 09:08:02;;;;;;;0.50;0.40;;;;;;;26.50;56.57;101095.69;4975468;28;20467;-49
2022/07/12 09:10:28;;;;;;;0.60;0.60;;;;;;;26.81;55.83;101096.72;4968154;28;20937;-48
2022/07/12 09:12:55;;;;;;;1.53;0.67;;;;;;;26.85;55.26;101087.28;4969166;28;20961;-49
2022/07/12 09:15:24;;;;;;;0.60;0.50;;;;;;;26.85;55.18;101084.56;4974997;28;20425;-49
2022/07/12 09:18:04;;;;;;;0.60;0.40;;;;;;;26.88;55.42;101088.91;4974793;28;20444;-49
2022/07/12 09:20:33;;;;;;;0.90;0.60;;;;;;;26.76;55.10;101085.34;4975272;28;20571;-51
2022/07/12 09:23:02;;;;;;;0.70;0.63;;;;;;;26.73;55.38;101085.63;4974583;28;20429;-48
2022/07/12 09:25:30;;;;;;;0.60;0.60;;;;;;;26.28;56.92;101085.63;4975318;28;20429;-49
2022/07/12 09:27:58;;;;;;;0.60;0.43;;;;;;;26.29;56.24;101083.78;4974831;28;20460;-49
2022/07/12 09:30:27;;;;;;;0.60;0.50;;;;;;;26.75;54.91;101086.34;4974837;28;20804;-50
2022/07/12 09:36:12;;;;;;;0.60;0.50;;;;;;;27.31;53.26;101086.16;4974743;28;20553;-49
2022/07/12 09:38:52;;;;;;;0.70;0.50;;;;;;;27.60;52.77;101080.88;4974459;28;20507;-50
2022/07/12 09:41:20;;;;;;;2.03;0.67;;;;;;;27.69;51.75;101077.41;4966582;28;20484;-49
2022/07/12 09:43:50;;;;;;;1.30;0.70;;;;;;;27.72;52.24;101077.13;4968580;28;20464;-50
2022/07/12 09:46:17;;;;;;;1.03;0.70;;;;;;;27.24;53.57;101082.19;4974664;28;20418;-50
2022/07/12 09:48:45;;;;;;;1.57;1.47;;;;;;;27.46;52.65;101081.22;4974372;28;20444;-49
2022/07/12 09:51:17;;;;;;;0.97;0.70;;;;;;;27.28;52.53;101080.09;4974400;28;20447;-49
2022/07/12 09:53:45;;;;;;;0.70;0.43;;;;;;;27.38;53.16;101078.28;4976582;28;20878;-49
2022/07/12 09:56:13;;;;;;;0.60;0.50;;;;;;;27.00;50.51;101071.50;4975600;28;20870;-49
2022/07/12 09:58:47;;;;;;;0.67;0.50;;;;;;;27.11;50.87;101076.06;4970979;28;20473;-49
2022/07/12 10:01:15;;;;;;;0.70;0.50;;;;;;;26.62;52.14;101077.47;4974431;28;20461;-49
2022/07/12 10:03:44;;;;;;;0.83;0.83;;;;;;;26.85;52.50;101076.38;4961247;28;20454;-49
2022/07/12 10:06:13;;;;;;;0.70;0.60;;;;;;;26.37;52.77;101077.75;4972907;28;20455;-49
2022/07/12 10:08:40;;;;;;;5.23;0.60;;;;;;;26.74;52.53;101078.28;4974135;28;20459;-49
2022/07/12 10:11:07;;;;;;;1.70;0.60;;;;;;;26.37;52.34;101064.97;4962653;28;20945;-49
2022/07/12 10:13:35;;;;;;;0.53;0.40;;;;;;;27.04;51.88;101061.22;4972975;28;20455;-49
2022/07/12 10:16:02;;;;;;;0.60;0.40;;;;;;;27.10;52.14;101057.94;4974182;28;20440;-50
2022/07/12 10:18:29;;;;;;;0.60;0.50;;;;;;;27.49;51.03;101061.84;4973822;28;20474;-48
2022/07/12 10:20:56;;;;;;;1.13;0.90;;;;;;;27.96;49.09;101067.72;4974311;28;20549;-49
2022/07/12 10:23:25;;;;;;;0.77;0.50;;;;;;;27.60;50.42;101069.09;4973916;28;20450;-49
2022/07/12 10:25:52;;;;;;;0.90;0.50;;;;;;;27.13;50.86;101077.66;4973906;28;20425;-49
2022/07/12 10:28:19;;;;;;;0.80;0.70;;;;;;;27.49;50.28;101080.94;4973470;28;21055;-49
2022/07/12 10:30:50;;;;;;;0.80;0.60;;;;;;;27.52;51.01;101082.53;4973558;28;20455;-50
2022/07/12 10:33:21;;;;;;;0.70;0.70;;;;;;;28.25;48.86;101081.53;4974024;28;20465;-49
2022/07/12 10:36:07;;;;;;;0.73;0.60;;;;;;;28.57;48.12;101084.09;4973612;28;20466;-49
2022/07/12 10:38:40;;;;;;;3.30;0.80;;;;;;;28.78;47.44;101073.03;4973647;28;20448;-49
2022/07/12 10:41:18;;;;;;;0.57;0.57;;;;;;;28.15;47.65;101075.16;4968679;28;20466;-49
2022/07/12 10:46:33;;;;;;;0.80;0.60;;;;;;;27.26;49.59;101082.06;4954268;28;20483;-51
2022/07/12 10:49:25;;;;;;;0.50;0.40;;;;;;;27.70;48.62;101081.00;4970060;28;20445;-48
2022/07/12 10:52:10;;;;;;;0.53;0.40;;;;;;;27.89;47.76;101075.63;4978875;28;20429;-49
2022/07/12 10:54:37;;;;;;;0.70;0.50;;;;;;;27.56;48.52;101078.56;4983645;28;20449;-49
2022/07/12 10:57:04;;;;;;;0.50;0.30;;;;;;;26.92;49.68;101074.00;4963643;28;20437;-49
2022/07/12 10:59:37;;;;;;;0.53;0.40;;;;;;;27.08;49.54;101071.72;4973818;28;20792;-49
2022/07/12 11:02:05;;;;;;;0.67;0.53;;;;;;;27.13;49.79;101072.19;4969494;28;20520;-49
2022/07/12 11:04:48;;;;;;;2.90;1.00;;;;;;;27.83;47.91;101073.44;4965978;28;20421;-49
2022/07/12 11:07:18;;;;;;;0.50;0.40;;;;;;;28.07;47.71;101064.03;4973445;28;20456;-49
2022/07/12 11:09:44;;;;;;;2.80;0.60;;;;;;;28.13;48.44;101068.97;4973137;28;20446;-50
2022/07/12 11:12:14;;;;;;;1.50;0.70;;;;;;;28.33;48.05;101068.06;4960980;28;20435;-49
2022/07/12 11:14:45;;;;;;;1.73;0.60;;;;;;;28.10;47.40;101071.97;4973391;28;20532;-48
2022/07/12 11:17:12;;;;;;;0.80;0.70;;;;;;;28.90;45.70;101071.94;4974776;28;20446;-49
2022/07/12 11:19:39;;;;;;;7.73;0.80;;;;;;;28.33;45.95;101071.66;4977181;28;20553;-49
2022/07/12 11:22:06;;;;;;;0.97;0.43;;;;;;;28.54;45.54;101059.78;4977499;28;20516;-49
2022/07/12 11:24:35;;;;;;;1.93;0.47;;;;;;;28.20;45.63;101068.25;4977054;28;20476;-49
2022/07/12 11:27:03;;;;;;;1.77;0.93;;;;;;;27.54;47.46;101064.16;4976902;28;20460;-49
2022/07/12 11:29:30;;;;;;;0.60;0.40;;;;;;;27.61;48.59;101060.75;4977352;28;20454;-49
2022/07/12 11:32:05;;;;;;;0.70;0.60;;;;;;;27.71;47.59;101064.47;4977301;28;20434;-49
2022/07/12 11:34:37;;;;;;;0.60;0.40;;;;;;;27.52;47.58;101047.03;4977324;28;20521;-49